sensor_id;sensor_type;location;lat;lon;timestamp;P1;durP1;ratioP1;P2;durP2;ratioP2
45382;SDS011;42455;51.660;5.824;2022-10-16T00:03:22;4.5;;;3.0;;
45382;SDS011;42455;51.660;5.824;2022-10-16T00:08:29;5.0;;;3.0;;
45382;SDS011;42455;51.660;5.824;2022-10-16T00:13:36;5.0;;;3.0;;
45382;SDS011;42455;51.660;5.824;2022-10-16T00:18:41;5.0;;;4.0;;
45382;SDS011;42455;51.660;5.824;2022-10-16T00:23:49;4.0;;;3.0;;
45382;SDS011;42455;51.660;5.824;2022-10-16T00:28:53;4.0;;;3.0;;
45382;SDS011;42455;51.660;5.824;2022-10-16T00:34:00;4.0;;;3.0;;
45382;SDS011;42455;51.660;5.824;2022-10-16T00:39:06;5.0;;;3.0;;
45382;SDS011;42455;51.660;5.824;2022-10-16T00:44:44;4.0;;;3.0;;
45382;SDS011;42455;51.660;5.824;2022-10-16T00:49:19;4.0;;;3.0;;
45382;SDS011;42455;51.660;5.824;2022-10-16T00:54:25;3.0;;;3.0;;
45382;SDS011;42455;51.660;5.824;2022-10-16T00:59:32;3.0;;;2.0;;
45382;SDS011;42455;51.660;5.824;2022-10-16T01:04:39;3.0;;;3.0;;
45382;SDS011;42455;51.660;5.824;2022-10-16T01:10:03;3.0;;;2.0;;
45382;SDS011;42455;51.660;5.824;2022-10-16T01:14:52;4.0;;;2.0;;
45382;SDS011;42455;51.660;5.824;2022-10-16T01:20:01;3.0;;;2.0;;
45382;SDS011;42455;51.660;5.824;2022-10-16T01:25:02;4.0;;;2.0;;
45382;SDS011;42455;51.660;5.824;2022-10-16T01:30:09;3.0;;;2.0;;
45382;SDS011;42455;51.660;5.824;2022-10-16T01:35:18;3.0;;;2.0;;
45382;SDS011;42455;51.660;5.824;2022-10-16T01:40:19;3.0;;;2.0;;
45382;SDS011;42455;51.660;5.824;2022-10-16T01:45:25;2.0;;;2.0;;
45382;SDS011;42455;51.660;5.824;2022-10-16T01:50:31;2.0;;;2.0;;
45382;SDS011;42455;51.660;5.824;2022-10-16T01:55:38;3.0;;;2.0;;
45382;SDS011;42455;51.660;5.824;2022-10-16T02:00:44;3.0;;;2.0;;
45382;SDS011;42455;51.660;5.824;2022-10-16T02:05:51;2.0;;;2.0;;
45382;SDS011;42455;51.660;5.824;2022-10-16T02:10:56;2.0;;;2.0;;
45382;SDS011;42455;51.660;5.824;2022-10-16T02:16:02;2.0;;;2.0;;
45382;SDS011;42455;51.660;5.824;2022-10-16T02:21:10;3.0;;;2.0;;
45382;SDS011;42455;51.660;5.824;2022-10-16T02:26:15;3.0;;;2.0;;
45382;SDS011;42455;51.660;5.824;2022-10-16T02:31:22;2.0;;;2.0;;
45382;SDS011;42455;51.660;5.824;2022-10-16T02:36:27;3.0;;;2.0;;
45382;SDS011;42455;51.660;5.824;2022-10-16T02:41:33;2.0;;;2.0;;
45382;SDS011;42455;51.660;5.824;2022-10-16T02:46:39;3.0;;;2.0;;
45382;SDS011;42455;51.660;5.824;2022-10-16T02:51:45;2.0;;;2.0;;
45382;SDS011;42455;51.660;5.824;2022-10-16T02:56:52;2.0;;;2.0;;
45382;SDS011;42455;51.660;5.824;2022-10-16T03:01:58;2.0;;;2.0;;
45382;SDS011;42455;51.660;5.824;2022-10-16T03:07:04;2.0;;;2.0;;
45382;SDS011;42455;51.660;5.824;2022-10-16T03:12:10;2.0;;;2.0;;
45382;SDS011;42455;51.660;5.824;2022-10-16T03:17:17;2.0;;;2.0;;
45382;SDS011;42455;51.660;5.824;2022-10-16T03:22:23;3.0;;;2.0;;
45382;SDS011;42455;51.660;5.824;2022-10-16T03:27:29;4.0;;;2.0;;
45382;SDS011;42455;51.660;5.824;2022-10-16T03:32:34;3.0;;;2.0;;
45382;SDS011;42455;51.660;5.824;2022-10-16T03:37:40;2.0;;;2.0;;
45382;SDS011;42455;51.660;5.824;2022-10-16T03:42:46;2.0;;;2.0;;
45382;SDS011;42455;51.660;5.824;2022-10-16T03:47:52;4.0;;;2.0;;
45382;SDS011;42455;51.660;5.824;2022-10-16T03:52:58;2.0;;;2.0;;
45382;SDS011;42455;51.660;5.824;2022-10-16T03:58:04;2.0;;;2.0;;
45382;SDS011;42455;51.660;5.824;2022-10-16T04:03:11;3.0;;;2.0;;
45382;SDS011;42455;51.660;5.824;2022-10-16T04:08:17;3.0;;;2.0;;
45382;SDS011;42455;51.660;5.824;2022-10-16T04:13:23;3.0;;;2.0;;
45382;SDS011;42455;51.660;5.824;2022-10-16T04:18:29;3.5;;;2.0;;
45382;SDS011;42455;51.660;5.824;2022-10-16T04:23:35;2.0;;;2.0;;
45382;SDS011;42455;51.660;5.824;2022-10-16T04:28:41;3.0;;;2.0;;
45382;SDS011;42455;51.660;5.824;2022-10-16T04:33:48;3.0;;;2.0;;
45382;SDS011;42455;51.660;5.824;2022-10-16T04:38:54;2.0;;;1.0;;
45382;SDS011;42455;51.660;5.824;2022-10-16T04:44:00;2.0;;;1.0;;
45382;SDS011;42455;51.660;5.824;2022-10-16T04:49:06;2.0;;;2.0;;
45382;SDS011;42455;51.660;5.824;2022-10-16T04:54:13;2.0;;;2.0;;
45382;SDS011;42455;51.660;5.824;2022-10-16T04:59:19;5.0;;;2.0;;
45382;SDS011;42455;51.660;5.824;2022-10-16T05:04:25;2.0;;;2.0;;
45382;SDS011;42455;51.660;5.824;2022-10-16T05:09:31;2.0;;;2.0;;
45382;SDS011;42455;51.660;5.824;2022-10-16T05:14:37;3.0;;;2.0;;
45382;SDS011;42455;51.660;5.824;2022-10-16T05:19:44;2.0;;;2.0;;
45382;SDS011;42455;51.660;5.824;2022-10-16T05:24:50;3.0;;;2.0;;
45382;SDS011;42455;51.660;5.824;2022-10-16T05:29:55;2.0;;;2.0;;
45382;SDS011;42455;51.660;5.824;2022-10-16T05:35:01;4.0;;;2.0;;
45382;SDS011;42455;51.660;5.824;2022-10-16T05:40:07;2.0;;;2.0;;
45382;SDS011;42455;51.660;5.824;2022-10-16T05:45:13;3.0;;;2.0;;
45382;SDS011;42455;51.660;5.824;2022-10-16T05:50:19;2.0;;;2.0;;
45382;SDS011;42455;51.660;5.824;2022-10-16T05:55:25;3.0;;;2.0;;
45382;SDS011;42455;51.660;5.824;2022-10-16T06:00:31;2.0;;;2.0;;
45382;SDS011;42455;51.660;5.824;2022-10-16T06:05:38;3.0;;;2.0;;
45382;SDS011;42455;51.660;5.824;2022-10-16T06:10:44;2.0;;;2.0;;
45382;SDS011;42455;51.660;5.824;2022-10-16T06:15:50;3.0;;;2.0;;
45382;SDS011;42455;51.660;5.824;2022-10-16T06:20:56;2.5;;;2.0;;
45382;SDS011;42455;51.660;5.824;2022-10-16T06:26:04;3.0;;;2.0;;
45382;SDS011;42455;51.660;5.824;2022-10-16T06:31:09;2.0;;;2.0;;
45382;SDS011;42455;51.660;5.824;2022-10-16T06:36:17;3.0;;;2.0;;
45382;SDS011;42455;51.660;5.824;2022-10-16T06:41:21;2.0;;;2.0;;
45382;SDS011;42455;51.660;5.824;2022-10-16T06:46:27;2.0;;;2.0;;
45382;SDS011;42455;51.660;5.824;2022-10-16T06:51:33;2.0;;;2.0;;
45382;SDS011;42455;51.660;5.824;2022-10-16T06:56:40;3.0;;;2.0;;
45382;SDS011;42455;51.660;5.824;2022-10-16T07:01:46;2.0;;;2.0;;
45382;SDS011;42455;51.660;5.824;2022-10-16T07:06:52;5.0;;;2.0;;
45382;SDS011;42455;51.660;5.824;2022-10-16T07:11:58;3.0;;;2.0;;
45382;SDS011;42455;51.660;5.824;2022-10-16T07:17:05;4.0;;;2.0;;
45382;SDS011;42455;51.660;5.824;2022-10-16T07:22:11;4.0;;;2.0;;
45382;SDS011;42455;51.660;5.824;2022-10-16T07:27:16;4.0;;;2.0;;
45382;SDS011;42455;51.660;5.824;2022-10-16T07:32:22;3.5;;;2.0;;
45382;SDS011;42455;51.660;5.824;2022-10-16T07:37:28;3.0;;;2.0;;
45382;SDS011;42455;51.660;5.824;2022-10-16T07:42:35;4.0;;;2.0;;
45382;SDS011;42455;51.660;5.824;2022-10-16T07:47:41;3.0;;;2.0;;
45382;SDS011;42455;51.660;5.824;2022-10-16T07:52:47;3.0;;;2.0;;
45382;SDS011;42455;51.660;5.824;2022-10-16T07:57:54;3.0;;;2.0;;
45382;SDS011;42455;51.660;5.824;2022-10-16T08:03:00;4.0;;;2.0;;
45382;SDS011;42455;51.660;5.824;2022-10-16T08:08:06;3.0;;;2.0;;
45382;SDS011;42455;51.660;5.824;2022-10-16T08:18:18;3.0;;;2.0;;
45382;SDS011;42455;51.660;5.824;2022-10-16T08:23:25;3.0;;;2.0;;
45382;SDS011;42455;51.660;5.824;2022-10-16T08:28:31;3.0;;;2.0;;
45382;SDS011;42455;51.660;5.824;2022-10-16T08:33:37;3.0;;;2.0;;
45382;SDS011;42455;51.660;5.824;2022-10-16T08:38:43;3.0;;;2.0;;
45382;SDS011;42455;51.660;5.824;2022-10-16T08:44:35;3.0;;;2.0;;
45382;SDS011;42455;51.660;5.824;2022-10-16T08:48:56;4.0;;;2.0;;
45382;SDS011;42455;51.660;5.824;2022-10-16T08:54:01;3.5;;;2.0;;
45382;SDS011;42455;51.660;5.824;2022-10-16T08:59:10;2.0;;;2.0;;
45382;SDS011;42455;51.660;5.824;2022-10-16T09:04:50;3.5;;;2.0;;
45382;SDS011;42455;51.660;5.824;2022-10-16T09:09:42;4.0;;;2.0;;
45382;SDS011;42455;51.660;5.824;2022-10-16T09:14:42;3.0;;;2.0;;
45382;SDS011;42455;51.660;5.824;2022-10-16T09:19:31;4.0;;;2.0;;
45382;SDS011;42455;51.660;5.824;2022-10-16T09:24:37;4.0;;;2.0;;
45382;SDS011;42455;51.660;5.824;2022-10-16T09:29:42;4.0;;;2.0;;
45382;SDS011;42455;51.660;5.824;2022-10-16T09:34:49;4.0;;;2.0;;
45382;SDS011;42455;51.660;5.824;2022-10-16T09:39:55;4.0;;;2.0;;
45382;SDS011;42455;51.660;5.824;2022-10-16T09:45:01;4.0;;;2.0;;
45382;SDS011;42455;51.660;5.824;2022-10-16T09:50:19;4.0;;;1.0;;
45382;SDS011;42455;51.660;5.824;2022-10-16T09:55:17;5.0;;;2.0;;
45382;SDS011;42455;51.660;5.824;2022-10-16T10:00:20;4.0;;;2.0;;
45382;SDS011;42455;51.660;5.824;2022-10-16T10:05:28;5.0;;;1.0;;
45382;SDS011;42455;51.660;5.824;2022-10-16T10:10:32;3.5;;;1.0;;
45382;SDS011;42455;51.660;5.824;2022-10-16T10:15:41;4.5;;;2.0;;
45382;SDS011;42455;51.660;5.824;2022-10-16T10:20:44;7.0;;;2.0;;
45382;SDS011;42455;51.660;5.824;2022-10-16T10:26:09;5.0;;;2.0;;
45382;SDS011;42455;51.660;5.824;2022-10-16T10:30:59;6.0;;;2.0;;
45382;SDS011;42455;51.660;5.824;2022-10-16T10:36:25;5.0;;;2.0;;
45382;SDS011;42455;51.660;5.824;2022-10-16T10:41:13;5.5;;;2.0;;
45382;SDS011;42455;51.660;5.824;2022-10-16T10:46:38;5.0;;;1.0;;
45382;SDS011;42455;51.660;5.824;2022-10-16T10:51:30;8.0;;;2.0;;
45382;SDS011;42455;51.660;5.824;2022-10-16T10:56:45;6.0;;;2.0;;
45382;SDS011;42455;51.660;5.824;2022-10-16T11:01:50;7.0;;;2.0;;
45382;SDS011;42455;51.660;5.824;2022-10-16T11:06:41;7.0;;;2.0;;
45382;SDS011;42455;51.660;5.824;2022-10-16T11:11:52;8.0;;;2.0;;
45382;SDS011;42455;51.660;5.824;2022-10-16T11:16:56;6.0;;;2.0;;
45382;SDS011;42455;51.660;5.824;2022-10-16T11:27:08;6.0;;;2.0;;
45382;SDS011;42455;51.660;5.824;2022-10-16T11:32:21;7.0;;;2.0;;
45382;SDS011;42455;51.660;5.824;2022-10-16T11:37:20;6.0;;;2.0;;
45382;SDS011;42455;51.660;5.824;2022-10-16T11:42:25;7.0;;;2.0;;
45382;SDS011;42455;51.660;5.824;2022-10-16T11:47:35;5.5;;;1.0;;
45382;SDS011;42455;51.660;5.824;2022-10-16T11:52:36;6.0;;;2.0;;
45382;SDS011;42455;51.660;5.824;2022-10-16T11:57:52;5.0;;;2.0;;
45382;SDS011;42455;51.660;5.824;2022-10-16T12:02:56;5.0;;;2.0;;
45382;SDS011;42455;51.660;5.824;2022-10-16T12:08:10;6.0;;;1.0;;
45382;SDS011;42455;51.660;5.824;2022-10-16T12:12:59;5.5;;;2.0;;
45382;SDS011;42455;51.660;5.824;2022-10-16T12:18:07;9.0;;;2.0;;
45382;SDS011;42455;51.660;5.824;2022-10-16T12:23:20;8.0;;;2.0;;
45382;SDS011;42455;51.660;5.824;2022-10-16T12:28:22;5.5;;;2.0;;
45382;SDS011;42455;51.660;5.824;2022-10-16T12:33:27;5.0;;;2.0;;
45382;SDS011;42455;51.660;5.824;2022-10-16T12:38:37;5.0;;;2.0;;
45382;SDS011;42455;51.660;5.824;2022-10-16T12:43:47;6.0;;;2.0;;
45382;SDS011;42455;51.660;5.824;2022-10-16T12:48:43;7.0;;;2.0;;
45382;SDS011;42455;51.660;5.824;2022-10-16T12:53:57;6.0;;;1.0;;
45382;SDS011;42455;51.660;5.824;2022-10-16T12:59:28;5.0;;;1.0;;
45382;SDS011;42455;51.660;5.824;2022-10-16T13:05:03;5.0;;;1.0;;
45382;SDS011;42455;51.660;5.824;2022-10-16T13:15:55;5.0;;;1.0;;
45382;SDS011;42455;51.660;5.824;2022-10-16T13:20:46;4.0;;;1.0;;
45382;SDS011;42455;51.660;5.824;2022-10-16T13:25:17;4.0;;;1.0;;
45382;SDS011;42455;51.660;5.824;2022-10-16T13:29:32;4.0;;;1.0;;
45382;SDS011;42455;51.660;5.824;2022-10-16T13:39:43;4.0;;;1.0;;
45382;SDS011;42455;51.660;5.824;2022-10-16T13:44:50;5.0;;;1.0;;
45382;SDS011;42455;51.660;5.824;2022-10-16T13:50:08;6.0;;;1.0;;
45382;SDS011;42455;51.660;5.824;2022-10-16T13:55:02;5.0;;;1.0;;
45382;SDS011;42455;51.660;5.824;2022-10-16T14:00:19;4.0;;;1.0;;
45382;SDS011;42455;51.660;5.824;2022-10-16T14:05:14;4.0;;;1.0;;
45382;SDS011;42455;51.660;5.824;2022-10-16T14:10:29;5.0;;;1.0;;
45382;SDS011;42455;51.660;5.824;2022-10-16T14:15:27;3.0;;;1.0;;
45382;SDS011;42455;51.660;5.824;2022-10-16T14:20:33;4.0;;;1.0;;
45382;SDS011;42455;51.660;5.824;2022-10-16T14:25:39;6.0;;;1.0;;
45382;SDS011;42455;51.660;5.824;2022-10-16T14:30:55;3.0;;;1.0;;
45382;SDS011;42455;51.660;5.824;2022-10-16T14:36:03;4.0;;;1.0;;
45382;SDS011;42455;51.660;5.824;2022-10-16T14:40:58;4.0;;;1.0;;
45382;SDS011;42455;51.660;5.824;2022-10-16T14:46:05;3.0;;;1.0;;
45382;SDS011;42455;51.660;5.824;2022-10-16T14:51:11;4.0;;;1.0;;
45382;SDS011;42455;51.660;5.824;2022-10-16T14:56:19;4.0;;;1.0;;
45382;SDS011;42455;51.660;5.824;2022-10-16T15:01:23;4.0;;;1.0;;
45382;SDS011;42455;51.660;5.824;2022-10-16T15:06:29;3.0;;;1.0;;
45382;SDS011;42455;51.660;5.824;2022-10-16T15:11:35;5.0;;;1.0;;
45382;SDS011;42455;51.660;5.824;2022-10-16T15:16:41;4.0;;;1.0;;
45382;SDS011;42455;51.660;5.824;2022-10-16T15:21:47;3.0;;;1.0;;
45382;SDS011;42455;51.660;5.824;2022-10-16T15:26:52;5.0;;;1.0;;
45382;SDS011;42455;51.660;5.824;2022-10-16T15:31:58;3.0;;;1.0;;
45382;SDS011;42455;51.660;5.824;2022-10-16T15:37:03;5.0;;;2.0;;
45382;SDS011;42455;51.660;5.824;2022-10-16T15:42:09;4.0;;;1.0;;
45382;SDS011;42455;51.660;5.824;2022-10-16T15:47:16;3.5;;;1.0;;
45382;SDS011;42455;51.660;5.824;2022-10-16T15:52:22;3.0;;;1.0;;
45382;SDS011;42455;51.660;5.824;2022-10-16T15:57:28;3.0;;;1.0;;
45382;SDS011;42455;51.660;5.824;2022-10-16T16:02:34;3.0;;;1.0;;
45382;SDS011;42455;51.660;5.824;2022-10-16T16:07:41;2.5;;;1.0;;
45382;SDS011;42455;51.660;5.824;2022-10-16T16:12:47;3.0;;;1.0;;
45382;SDS011;42455;51.660;5.824;2022-10-16T16:17:53;4.0;;;1.0;;
45382;SDS011;42455;51.660;5.824;2022-10-16T16:22:59;2.5;;;1.0;;
45382;SDS011;42455;51.660;5.824;2022-10-16T16:28:05;4.5;;;2.0;;
45382;SDS011;42455;51.660;5.824;2022-10-16T16:33:12;3.0;;;1.0;;
45382;SDS011;42455;51.660;5.824;2022-10-16T16:38:18;3.0;;;1.0;;
45382;SDS011;42455;51.660;5.824;2022-10-16T16:43:24;4.0;;;2.0;;
45382;SDS011;42455;51.660;5.824;2022-10-16T16:48:31;2.0;;;1.0;;
45382;SDS011;42455;51.660;5.824;2022-10-16T16:53:37;3.0;;;1.0;;
45382;SDS011;42455;51.660;5.824;2022-10-16T16:58:44;3.0;;;1.0;;
45382;SDS011;42455;51.660;5.824;2022-10-16T17:03:51;3.0;;;2.0;;
45382;SDS011;42455;51.660;5.824;2022-10-16T17:08:56;3.0;;;2.0;;
45382;SDS011;42455;51.660;5.824;2022-10-16T17:14:02;3.0;;;2.0;;
45382;SDS011;42455;51.660;5.824;2022-10-16T17:19:09;4.0;;;2.0;;
45382;SDS011;42455;51.660;5.824;2022-10-16T17:24:13;3.0;;;2.0;;
45382;SDS011;42455;51.660;5.824;2022-10-16T17:29:19;3.0;;;2.0;;
45382;SDS011;42455;51.660;5.824;2022-10-16T17:34:25;4.0;;;2.0;;
45382;SDS011;42455;51.660;5.824;2022-10-16T17:39:31;4.0;;;3.0;;
45382;SDS011;42455;51.660;5.824;2022-10-16T17:44:38;7.0;;;4.0;;
45382;SDS011;42455;51.660;5.824;2022-10-16T17:49:44;9.0;;;4.0;;
45382;SDS011;42455;51.660;5.824;2022-10-16T17:54:50;4.0;;;3.0;;
45382;SDS011;42455;51.660;5.824;2022-10-16T17:59:56;4.0;;;3.0;;
45382;SDS011;42455;51.660;5.824;2022-10-16T18:05:03;3.0;;;3.0;;
45382;SDS011;42455;51.660;5.824;2022-10-16T18:10:09;4.0;;;3.0;;
45382;SDS011;42455;51.660;5.824;2022-10-16T18:15:15;3.0;;;3.0;;
45382;SDS011;42455;51.660;5.824;2022-10-16T18:20:21;4.0;;;3.0;;
45382;SDS011;42455;51.660;5.824;2022-10-16T18:25:27;3.0;;;3.0;;
45382;SDS011;42455;51.660;5.824;2022-10-16T18:30:33;4.0;;;3.0;;
45382;SDS011;42455;51.660;5.824;2022-10-16T18:35:40;4.5;;;3.0;;
45382;SDS011;42455;51.660;5.824;2022-10-16T18:40:46;5.0;;;4.0;;
45382;SDS011;42455;51.660;5.824;2022-10-16T18:45:59;6.0;;;4.0;;
45382;SDS011;42455;51.660;5.824;2022-10-16T18:51:05;5.0;;;3.0;;
45382;SDS011;42455;51.660;5.824;2022-10-16T18:56:05;6.0;;;4.0;;
45382;SDS011;42455;51.660;5.824;2022-10-16T19:01:11;4.0;;;4.0;;
45382;SDS011;42455;51.660;5.824;2022-10-16T19:06:17;4.0;;;4.0;;
45382;SDS011;42455;51.660;5.824;2022-10-16T19:11:25;5.0;;;4.0;;
45382;SDS011;42455;51.660;5.824;2022-10-16T19:16:32;4.5;;;4.0;;
45382;SDS011;42455;51.660;5.824;2022-10-16T19:21:37;5.0;;;4.0;;
45382;SDS011;42455;51.660;5.824;2022-10-16T19:26:40;4.0;;;4.0;;
45382;SDS011;42455;51.660;5.824;2022-10-16T19:31:46;6.0;;;4.0;;
45382;SDS011;42455;51.660;5.824;2022-10-16T19:36:52;5.0;;;4.0;;
45382;SDS011;42455;51.660;5.824;2022-10-16T19:41:58;5.5;;;4.0;;
45382;SDS011;42455;51.660;5.824;2022-10-16T19:47:05;4.0;;;4.0;;
45382;SDS011;42455;51.660;5.824;2022-10-16T19:52:11;5.0;;;4.0;;
45382;SDS011;42455;51.660;5.824;2022-10-16T19:57:17;6.0;;;4.0;;
45382;SDS011;42455;51.660;5.824;2022-10-16T20:02:23;5.0;;;4.0;;
45382;SDS011;42455;51.660;5.824;2022-10-16T20:07:29;5.0;;;4.0;;
45382;SDS011;42455;51.660;5.824;2022-10-16T20:12:36;5.0;;;5.0;;
45382;SDS011;42455;51.660;5.824;2022-10-16T20:17:42;7.0;;;4.0;;
45382;SDS011;42455;51.660;5.824;2022-10-16T20:22:48;6.0;;;5.0;;
45382;SDS011;42455;51.660;5.824;2022-10-16T20:27:54;5.0;;;5.0;;
45382;SDS011;42455;51.660;5.824;2022-10-16T20:33:00;5.0;;;5.0;;
45382;SDS011;42455;51.660;5.824;2022-10-16T20:38:07;6.0;;;5.0;;
45382;SDS011;42455;51.660;5.824;2022-10-16T20:43:14;5.0;;;4.0;;
45382;SDS011;42455;51.660;5.824;2022-10-16T20:48:19;5.0;;;5.0;;
45382;SDS011;42455;51.660;5.824;2022-10-16T20:53:25;6.0;;;5.0;;
45382;SDS011;42455;51.660;5.824;2022-10-16T20:58:31;6.0;;;5.0;;
45382;SDS011;42455;51.660;5.824;2022-10-16T21:03:38;5.0;;;5.0;;
45382;SDS011;42455;51.660;5.824;2022-10-16T21:08:44;7.0;;;5.0;;
45382;SDS011;42455;51.660;5.824;2022-10-16T21:13:51;6.0;;;5.0;;
45382;SDS011;42455;51.660;5.824;2022-10-16T21:18:56;6.5;;;5.0;;
45382;SDS011;42455;51.660;5.824;2022-10-16T21:24:03;5.5;;;5.0;;
45382;SDS011;42455;51.660;5.824;2022-10-16T21:29:07;6.0;;;5.0;;
45382;SDS011;42455;51.660;5.824;2022-10-16T21:34:13;6.0;;;5.0;;
45382;SDS011;42455;51.660;5.824;2022-10-16T21:39:19;6.0;;;6.0;;
45382;SDS011;42455;51.660;5.824;2022-10-16T21:44:25;6.0;;;6.0;;
45382;SDS011;42455;51.660;5.824;2022-10-16T21:49:32;7.0;;;6.0;;
45382;SDS011;42455;51.660;5.824;2022-10-16T21:54:38;6.0;;;5.0;;
45382;SDS011;42455;51.660;5.824;2022-10-16T21:59:44;8.0;;;6.0;;
45382;SDS011;42455;51.660;5.824;2022-10-16T22:04:50;7.0;;;6.0;;
45382;SDS011;42455;51.660;5.824;2022-10-16T22:09:56;6.0;;;6.0;;
45382;SDS011;42455;51.660;5.824;2022-10-16T22:15:03;7.0;;;6.0;;
45382;SDS011;42455;51.660;5.824;2022-10-16T22:20:09;7.0;;;6.0;;
45382;SDS011;42455;51.660;5.824;2022-10-16T22:25:15;7.0;;;7.0;;
45382;SDS011;42455;51.660;5.824;2022-10-16T22:30:21;8.0;;;6.0;;
45382;SDS011;42455;51.660;5.824;2022-10-16T22:35:28;7.0;;;7.0;;
45382;SDS011;42455;51.660;5.824;2022-10-16T22:40:34;7.0;;;6.0;;
45382;SDS011;42455;51.660;5.824;2022-10-16T22:45:40;7.0;;;6.0;;
45382;SDS011;42455;51.660;5.824;2022-10-16T22:50:46;7.0;;;6.0;;
45382;SDS011;42455;51.660;5.824;2022-10-16T22:55:52;8.0;;;7.0;;
45382;SDS011;42455;51.660;5.824;2022-10-16T23:00:59;8.0;;;7.0;;
45382;SDS011;42455;51.660;5.824;2022-10-16T23:06:05;8.0;;;7.0;;
45382;SDS011;42455;51.660;5.824;2022-10-16T23:11:11;8.0;;;7.0;;
45382;SDS011;42455;51.660;5.824;2022-10-16T23:16:17;8.0;;;7.0;;
45382;SDS011;42455;51.660;5.824;2022-10-16T23:21:23;9.0;;;8.0;;
45382;SDS011;42455;51.660;5.824;2022-10-16T23:26:29;9.0;;;8.0;;
45382;SDS011;42455;51.660;5.824;2022-10-16T23:31:35;8.0;;;8.0;;
45382;SDS011;42455;51.660;5.824;2022-10-16T23:36:41;10.0;;;8.0;;
45382;SDS011;42455;51.660;5.824;2022-10-16T23:41:47;9.0;;;8.0;;
45382;SDS011;42455;51.660;5.824;2022-10-16T23:46:54;9.0;;;8.0;;
45382;SDS011;42455;51.660;5.824;2022-10-16T23:52:00;9.0;;;8.0;;
45382;SDS011;42455;51.660;5.824;2022-10-16T23:57:06;9.0;;;8.0;;
